createdAt,value
2019-03-15T00:00:41.993Z,2.00
2019-03-15T00:03:10.659Z,2.17
2019-03-15T00:05:39.312Z,2.30
2019-03-15T00:08:07.953Z,1.77
2019-03-15T00:10:36.651Z,2.47
2019-03-15T00:13:05.195Z,2.55
2019-03-15T00:15:34.109Z,2.33
2019-03-15T00:18:02.632Z,1.92
2019-03-15T00:20:31.160Z,2.27
2019-03-15T00:23:00.009Z,2.42
2019-03-15T00:25:28.795Z,2.00
2019-03-15T00:27:57.332Z,2.52
2019-03-15T00:30:25.920Z,3.40
2019-03-15T00:32:54.458Z,2.58
2019-03-15T00:35:23.096Z,2.85
2019-03-15T00:37:51.676Z,3.15
2019-03-15T00:40:20.249Z,1.70
2019-03-15T00:42:48.926Z,2.27
2019-03-15T00:45:17.493Z,2.40
2019-03-15T00:47:46.045Z,2.08
2019-03-15T00:50:14.677Z,1.80
2019-03-15T00:52:43.333Z,2.50
2019-03-15T00:55:11.986Z,1.67
2019-03-15T00:57:40.638Z,2.27
2019-03-15T01:00:10.954Z,2.67
2019-03-15T01:02:39.599Z,2.33
2019-03-15T01:05:08.475Z,3.20
2019-03-15T01:07:37.121Z,1.95
2019-03-15T01:10:05.888Z,2.62
2019-03-15T01:12:34.542Z,2.92
2019-03-15T01:15:03.769Z,2.08
2019-03-15T01:17:32.297Z,2.12
2019-03-15T01:20:00.937Z,3.27
2019-03-15T01:22:29.703Z,2.62
2019-03-15T01:24:58.357Z,2.72
2019-03-15T01:27:26.882Z,3.15
2019-03-15T01:29:55.666Z,3.87
2019-03-15T01:32:24.221Z,2.95
2019-03-15T01:34:52.749Z,3.00
2019-03-15T01:37:21.612Z,2.90
2019-03-15T01:39:50.317Z,3.58
2019-03-15T01:42:18.956Z,3.33
2019-03-15T01:44:47.525Z,2.55
2019-03-15T01:47:16.268Z,3.08
2019-03-15T01:49:44.985Z,2.83
2019-03-15T01:52:13.544Z,3.62
2019-03-15T01:54:42.341Z,2.42
2019-03-15T01:57:10.975Z,2.67
2019-03-15T01:59:39.765Z,2.40
2019-03-15T02:02:08.302Z,3.08
2019-03-15T02:04:36.939Z,2.05
2019-03-15T02:07:05.644Z,2.50
2019-03-15T02:09:34.212Z,2.08
2019-03-15T02:12:02.865Z,2.17
2019-03-15T02:14:31.410Z,2.45
2019-03-15T02:17:00.215Z,2.62
2019-03-15T02:19:29.168Z,2.87
2019-03-15T02:21:57.904Z,2.72
2019-03-15T02:24:26.581Z,2.30
2019-03-15T02:26:55.118Z,2.22
2019-03-15T02:29:23.992Z,2.55
2019-03-15T02:31:52.643Z,2.45
2019-03-15T02:34:21.151Z,3.30
2019-03-15T02:36:49.690Z,3.30
2019-03-15T02:39:18.206Z,3.47
2019-03-15T02:41:46.744Z,2.98
2019-03-15T02:44:15.506Z,3.10
2019-03-15T02:46:44.050Z,2.62
2019-03-15T02:49:12.693Z,3.60
2019-03-15T02:51:41.588Z,3.47
2019-03-15T02:54:10.473Z,3.98
2019-03-15T02:56:39.021Z,3.17
2019-03-15T02:59:07.568Z,2.67
2019-03-15T03:01:36.202Z,2.83
2019-03-15T03:04:04.743Z,3.05
2019-03-15T03:06:33.312Z,3.58
2019-03-15T03:09:01.982Z,3.25
2019-03-15T03:11:30.500Z,3.50
2019-03-15T03:13:59.219Z,2.80
2019-03-15T03:16:27.852Z,4.05
2019-03-15T03:18:56.473Z,3.42
2019-03-15T03:21:25.080Z,3.10
2019-03-15T03:23:53.619Z,2.27
2019-03-15T03:26:22.147Z,3.45
2019-03-15T03:28:50.695Z,2.70
2019-03-15T03:31:19.212Z,3.45
2019-03-15T03:33:47.722Z,2.65
2019-03-15T03:36:16.256Z,2.92
2019-03-15T03:38:44.814Z,2.75
2019-03-15T03:41:13.361Z,2.45
2019-03-15T03:43:41.897Z,2.37
2019-03-15T03:46:10.539Z,2.45
2019-03-15T03:48:39.091Z,2.30
2019-03-15T03:51:08.661Z,2.85
2019-03-15T03:53:37.351Z,2.60
2019-03-15T03:56:06.019Z,2.05
2019-03-15T03:58:34.652Z,2.70
2019-03-15T04:01:03.176Z,2.50
2019-03-15T04:03:31.861Z,2.22
2019-03-15T04:06:00.821Z,2.45
2019-03-15T04:08:29.413Z,2.67
2019-03-15T04:10:57.951Z,2.42
2019-03-15T04:13:26.508Z,2.60
2019-03-15T04:15:55.153Z,2.52
2019-03-15T04:18:23.798Z,2.17
2019-03-15T04:20:52.376Z,2.47
2019-03-15T04:23:21.011Z,2.55
2019-03-15T04:25:49.547Z,2.90
2019-03-15T04:28:18.210Z,3.50
2019-03-15T04:30:46.721Z,2.87
2019-03-15T04:33:15.263Z,3.02
2019-03-15T04:35:43.803Z,3.45
2019-03-15T04:38:12.348Z,3.35
2019-03-15T04:40:40.984Z,3.80
2019-03-15T04:43:09.550Z,3.92
2019-03-15T04:45:38.186Z,3.47
2019-03-15T04:48:06.724Z,4.15
2019-03-15T04:50:35.397Z,3.70
2019-03-15T04:53:04.018Z,3.92
2019-03-15T04:55:32.641Z,4.15
2019-03-15T04:58:01.203Z,3.92
2019-03-15T05:00:29.835Z,6.08
2019-03-15T05:02:58.369Z,4.00
2019-03-15T05:05:26.926Z,4.10
2019-03-15T05:07:55.494Z,4.37
2019-03-15T05:10:24.140Z,4.30
2019-03-15T05:12:52.815Z,4.00
2019-03-15T05:15:21.364Z,3.47
2019-03-15T05:17:49.899Z,4.05
2019-03-15T05:20:21.047Z,4.25
2019-03-15T05:22:48.900Z,4.70
2019-03-15T05:25:17.543Z,4.28
2019-03-15T05:27:46.197Z,3.50
2019-03-15T05:30:14.713Z,4.00
2019-03-15T05:32:43.250Z,3.92
2019-03-15T05:35:11.980Z,3.80
2019-03-15T05:37:40.504Z,3.60
2019-03-15T05:40:09.272Z,3.65
2019-03-15T05:42:37.822Z,4.53
2019-03-15T05:45:07.570Z,4.10
2019-03-15T05:47:36.133Z,4.20
2019-03-15T05:50:06.164Z,4.45
2019-03-15T05:52:34.790Z,3.95
2019-03-15T05:55:04.259Z,3.70
2019-03-15T05:57:33.041Z,4.17
2019-03-15T06:00:01.595Z,3.37
2019-03-15T06:02:30.128Z,4.12
2019-03-15T06:04:58.668Z,3.67
2019-03-15T06:07:27.197Z,4.05
2019-03-15T06:09:55.737Z,3.92
2019-03-15T06:12:24.404Z,4.25
2019-03-15T06:14:52.937Z,3.45
2019-03-15T06:17:21.484Z,3.52
2019-03-15T06:19:50.110Z,4.33
2019-03-15T06:22:18.657Z,4.35
2019-03-15T06:24:47.283Z,2.30
2019-03-15T06:27:15.864Z,4.00
2019-03-15T06:29:44.401Z,3.72
2019-03-15T06:32:13.028Z,3.77
2019-03-15T06:34:41.620Z,3.75
2019-03-15T06:37:10.156Z,3.90
2019-03-15T06:39:38.692Z,4.83
2019-03-15T06:42:07.357Z,3.90
2019-03-15T06:44:37.513Z,4.03
2019-03-15T06:47:06.328Z,4.50
2019-03-15T06:49:35.002Z,4.97
2019-03-15T06:52:03.856Z,4.25
2019-03-15T06:54:32.400Z,4.28
2019-03-15T06:57:01.055Z,5.45
2019-03-15T06:59:29.625Z,4.30
2019-03-15T07:01:58.251Z,5.17
2019-03-15T07:04:26.929Z,4.37
2019-03-15T07:06:55.486Z,4.78
2019-03-15T07:09:24.243Z,4.97
2019-03-15T07:11:53.046Z,5.00
2019-03-15T07:14:21.696Z,4.87
2019-03-15T07:16:50.339Z,4.62
2019-03-15T07:19:26.348Z,6.33
2019-03-15T07:21:50.894Z,5.87
2019-03-15T07:24:25.235Z,5.55
2019-03-15T07:26:50.131Z,5.17
2019-03-15T07:29:19.131Z,5.37
2019-03-15T07:31:47.855Z,6.08
2019-03-15T07:34:16.393Z,5.80
2019-03-15T07:36:44.938Z,6.22
2019-03-15T07:39:13.600Z,5.87
2019-03-15T07:41:42.138Z,6.25
2019-03-15T07:44:10.783Z,6.62
2019-03-15T07:46:39.373Z,7.55
2019-03-15T07:49:08.041Z,7.75
2019-03-15T07:51:36.681Z,7.03
2019-03-15T07:54:05.319Z,5.50
2019-03-15T07:56:34.060Z,9.10
2019-03-15T07:59:02.793Z,10.05
2019-03-15T08:01:31.461Z,9.80
2019-03-15T08:04:00.118Z,7.53
2019-03-15T08:06:34.775Z,8.95
2019-03-15T08:08:59.189Z,8.90
2019-03-15T08:11:27.742Z,8.13
2019-03-15T08:13:56.288Z,7.60
2019-03-15T08:16:24.856Z,5.03
2019-03-15T08:18:53.402Z,6.85
2019-03-15T08:21:22.822Z,7.47
2019-03-15T08:23:51.503Z,7.17
2019-03-15T08:26:20.056Z,6.97
2019-03-15T08:28:48.706Z,6.62
2019-03-15T08:31:17.491Z,7.25
2019-03-15T08:33:46.012Z,6.55
2019-03-15T08:36:14.553Z,7.53
2019-03-15T08:38:47.883Z,5.97
2019-03-15T08:41:13.633Z,6.85
2019-03-15T08:43:42.186Z,6.28
2019-03-15T08:46:10.868Z,4.72
2019-03-15T08:48:39.476Z,6.28
2019-03-15T08:51:10.640Z,6.00
2019-03-15T08:53:38.482Z,6.70
2019-03-15T08:56:07.012Z,7.40
2019-03-15T08:58:35.546Z,8.48
2019-03-15T09:01:04.212Z,8.30
2019-03-15T09:03:34.310Z,1.82
2019-03-15T09:06:03.203Z,9.55
2019-03-15T09:08:31.753Z,7.97
2019-03-15T09:11:00.307Z,8.73
2019-03-15T09:13:28.891Z,9.33
2019-03-15T09:15:57.450Z,7.67
2019-03-15T09:18:25.987Z,7.65
2019-03-15T09:20:54.522Z,8.60
2019-03-15T09:23:23.056Z,5.97
2019-03-15T09:25:51.709Z,8.13
2019-03-15T09:28:20.434Z,8.15
2019-03-15T09:30:48.974Z,8.03
2019-03-15T09:33:17.505Z,9.78
2019-03-15T09:35:46.061Z,10.88
2019-03-15T09:38:14.625Z,10.08
2019-03-15T09:40:43.180Z,11.43
2019-03-15T09:43:11.729Z,8.70
2019-03-15T09:45:40.297Z,11.85
2019-03-15T09:48:08.965Z,12.50
2019-03-15T09:50:50.465Z,8.55
2019-03-15T09:53:08.377Z,13.83
2019-03-15T09:55:36.923Z,13.15
2019-03-15T09:58:05.474Z,13.72
2019-03-15T10:00:34.041Z,16.27
2019-03-15T10:03:02.682Z,16.85
2019-03-15T10:05:31.348Z,17.00
2019-03-15T10:07:59.906Z,18.75
2019-03-15T10:10:28.607Z,18.15
2019-03-15T10:13:05.663Z,20.05
2019-03-15T10:15:27.646Z,19.27
2019-03-15T10:17:56.283Z,20.72
2019-03-15T10:20:24.820Z,17.60
2019-03-15T10:23:05.624Z,19.95
2019-03-15T10:25:23.884Z,21.02
2019-03-15T10:27:52.423Z,21.23
2019-03-15T10:30:21.169Z,19.65
2019-03-15T10:32:49.828Z,18.87
2019-03-15T10:35:18.363Z,18.98
2019-03-15T10:37:46.957Z,20.95
2019-03-15T10:40:15.684Z,20.45
2019-03-15T10:42:44.345Z,19.75
2019-03-15T10:45:13.012Z,17.30
2019-03-15T10:47:42.621Z,19.80
2019-03-15T10:50:11.704Z,18.67
2019-03-15T10:52:40.387Z,16.93
2019-03-15T10:55:09.486Z,17.15
2019-03-15T10:57:38.229Z,15.20
2019-03-15T11:00:09.107Z,15.45
2019-03-15T11:02:37.768Z,14.80
2019-03-15T11:05:07.195Z,12.45
2019-03-15T11:07:35.767Z,14.47
2019-03-15T11:10:05.141Z,12.60
2019-03-15T11:12:33.679Z,10.03
2019-03-15T11:15:02.467Z,13.28
2019-03-15T11:17:31.031Z,11.28
2019-03-15T11:19:59.643Z,10.93
2019-03-15T11:22:28.239Z,11.20
2019-03-15T11:24:56.782Z,12.20
2019-03-15T11:27:25.356Z,11.20
2019-03-15T11:29:54.051Z,11.15
2019-03-15T11:32:22.654Z,10.63
2019-03-15T11:34:51.362Z,10.72
2019-03-15T11:37:19.980Z,10.13
2019-03-15T11:39:48.531Z,9.43
2019-03-15T11:42:17.128Z,9.38
2019-03-15T11:44:45.719Z,7.50
2019-03-15T11:47:14.378Z,8.30
2019-03-15T11:49:42.924Z,9.00
2019-03-15T11:52:11.808Z,7.65
2019-03-15T11:54:40.462Z,8.08
2019-03-15T11:57:09.108Z,7.87
2019-03-15T11:59:38.229Z,7.25
2019-03-15T12:02:06.859Z,6.97
2019-03-15T12:04:35.531Z,7.25
2019-03-15T12:07:04.124Z,7.28
2019-03-15T12:09:32.761Z,7.72
2019-03-15T12:12:01.314Z,7.83
2019-03-15T12:14:40.415Z,6.87
2019-03-15T12:17:00.568Z,6.12
2019-03-15T12:19:29.096Z,7.08
2019-03-15T12:22:06.103Z,5.72
2019-03-15T12:24:28.267Z,5.37
2019-03-15T12:26:56.839Z,5.25
2019-03-15T12:29:25.505Z,5.05
2019-03-15T12:31:54.052Z,5.53
2019-03-15T12:34:22.592Z,5.30
2019-03-15T12:36:51.130Z,4.03
2019-03-15T12:39:19.795Z,5.17
2019-03-15T12:41:48.342Z,4.80
2019-03-15T12:44:17.027Z,4.72
2019-03-15T12:46:45.575Z,5.78
2019-03-15T12:49:14.114Z,6.22
2019-03-15T12:51:42.681Z,5.37
2019-03-15T12:54:11.274Z,6.08
2019-03-15T12:56:52.940Z,6.83
2019-03-15T12:59:10.397Z,5.87
2019-03-15T13:01:39.189Z,8.23
2019-03-15T13:04:08.140Z,9.78
2019-03-15T13:06:37.189Z,7.85
2019-03-15T13:09:05.903Z,9.85
2019-03-15T13:11:34.873Z,8.00
2019-03-15T13:14:03.785Z,9.33
2019-03-15T13:16:32.304Z,12.45
2019-03-15T13:19:00.962Z,10.53
2019-03-15T13:21:29.505Z,10.03
2019-03-15T13:23:58.054Z,9.65
2019-03-15T13:26:28.958Z,11.38
2019-03-15T13:28:57.058Z,10.35
2019-03-15T13:31:25.589Z,11.33
2019-03-15T13:33:54.127Z,9.15
2019-03-15T13:36:22.731Z,8.08
2019-03-15T13:38:51.363Z,8.40
2019-03-15T13:41:19.900Z,7.83
2019-03-15T13:43:48.566Z,6.80
2019-03-15T13:46:17.135Z,8.28
2019-03-15T13:48:45.781Z,8.18
2019-03-15T13:51:14.444Z,6.55
2019-03-15T13:53:42.980Z,8.30
2019-03-15T13:56:11.527Z,7.35
2019-03-15T13:58:40.094Z,8.13
2019-03-15T14:01:08.628Z,8.75
2019-03-15T14:03:37.167Z,9.95
2019-03-15T14:06:05.736Z,11.35
2019-03-15T14:08:34.280Z,7.72
2019-03-15T14:11:03.182Z,10.88
2019-03-15T14:13:31.727Z,8.85
2019-03-15T14:16:01.719Z,10.60
2019-03-15T14:18:30.478Z,9.18
2019-03-15T14:20:59.138Z,9.25
2019-03-15T14:23:27.670Z,13.18
2019-03-15T14:25:56.206Z,5.92
2019-03-15T14:28:24.780Z,7.80
2019-03-15T14:30:53.319Z,8.25
2019-03-15T14:33:21.879Z,7.78
2019-03-15T14:35:50.521Z,8.33
2019-03-15T14:38:19.073Z,7.12
2019-03-15T14:40:48.124Z,8.08
2019-03-15T14:43:16.791Z,7.60
2019-03-15T14:45:45.577Z,5.65
2019-03-15T14:48:14.125Z,7.83
2019-03-15T14:50:42.654Z,5.05
2019-03-15T14:53:11.208Z,7.58
2019-03-15T14:55:39.753Z,7.97
2019-03-15T14:58:08.333Z,7.47
2019-03-15T15:00:36.984Z,7.22
2019-03-15T15:03:05.498Z,6.60
2019-03-15T15:05:34.178Z,6.92
2019-03-15T15:08:02.917Z,8.20
2019-03-15T15:10:31.559Z,6.22
2019-03-15T15:13:00.136Z,5.25
2019-03-15T15:15:28.768Z,6.70
2019-03-15T15:17:57.285Z,6.83
2019-03-15T15:20:25.852Z,6.90
2019-03-15T15:22:54.346Z,6.33
2019-03-15T15:25:23.011Z,5.37
2019-03-15T15:28:03.873Z,7.12
2019-03-15T15:30:22.218Z,5.83
2019-03-15T15:32:50.736Z,6.95
2019-03-15T15:35:19.400Z,7.53
2019-03-15T15:37:47.919Z,8.55
2019-03-15T15:40:16.773Z,8.05
2019-03-15T15:42:45.453Z,7.58
2019-03-15T15:45:14.199Z,7.33
2019-03-15T15:47:42.858Z,6.30
2019-03-15T15:50:11.906Z,9.13
2019-03-15T15:52:40.620Z,9.50
2019-03-15T15:55:09.405Z,8.83
2019-03-15T15:57:37.967Z,16.62
2019-03-15T16:00:08.297Z,18.85
2019-03-15T16:02:36.959Z,22.05
2019-03-15T16:05:08.562Z,23.70
2019-03-15T16:07:36.695Z,27.50
2019-03-15T16:10:06.743Z,14.23
2019-03-15T16:12:35.514Z,12.85
2019-03-15T16:15:05.247Z,16.12
2019-03-15T16:17:33.864Z,9.03
2019-03-15T16:20:02.828Z,7.45
2019-03-15T16:22:31.487Z,3.35
2019-03-15T16:25:00.032Z,2.72
2019-03-15T16:27:28.717Z,5.30
2019-03-15T16:29:57.487Z,5.35
2019-03-15T16:32:26.103Z,6.40
2019-03-15T16:34:54.661Z,4.28
2019-03-15T16:37:23.411Z,3.10
2019-03-15T16:42:15.772Z,8.90
2019-03-15T16:44:44.338Z,9.13
2019-03-15T16:47:13.069Z,5.80
2019-03-15T16:49:41.621Z,6.87
2019-03-15T16:52:10.705Z,4.95
2019-03-15T16:54:39.356Z,7.33
2019-03-15T16:57:07.914Z,8.00
2019-03-15T16:59:36.472Z,7.20
2019-03-15T17:02:05.143Z,6.28
2019-03-15T17:04:34.065Z,8.88
2019-03-15T17:07:02.882Z,5.03
2019-03-15T17:09:31.434Z,2.00
2019-03-15T17:12:00.086Z,1.90
2019-03-15T17:14:29.057Z,2.25
2019-03-15T17:16:57.751Z,3.02
2019-03-15T17:19:26.288Z,2.77
2019-03-15T17:21:54.871Z,2.75
2019-03-15T17:24:23.593Z,1.90
2019-03-15T17:26:52.257Z,2.02
2019-03-15T17:29:23.996Z,1.80
2019-03-15T17:31:52.688Z,2.72
2019-03-15T17:34:21.249Z,1.95
2019-03-15T17:36:49.823Z,3.33
2019-03-15T17:39:18.386Z,2.20
2019-03-15T17:41:46.935Z,1.98
2019-03-15T17:44:15.507Z,2.40
2019-03-15T17:46:44.164Z,2.50
2019-03-15T17:49:12.703Z,2.17
2019-03-15T17:51:41.369Z,2.12
2019-03-15T17:54:10.018Z,4.45
2019-03-15T17:56:38.683Z,3.40
2019-03-15T17:59:12.244Z,3.62
2019-03-15T18:01:37.838Z,3.42
2019-03-15T18:04:06.590Z,3.67
2019-03-15T18:06:35.288Z,2.90
2019-03-15T18:09:04.885Z,2.80
2019-03-15T18:11:33.449Z,3.17
2019-03-15T18:14:02.220Z,4.92
2019-03-15T18:16:30.787Z,3.83
2019-03-15T18:18:59.432Z,6.55
2019-03-15T18:21:28.102Z,3.20
2019-03-15T18:23:56.773Z,3.52
2019-03-15T18:26:25.339Z,4.12
2019-03-15T18:28:54.000Z,5.47
2019-03-15T18:31:22.660Z,3.95
2019-03-15T18:33:51.230Z,3.08
2019-03-15T18:36:20.192Z,3.20
2019-03-15T18:38:48.722Z,3.40
2019-03-15T18:41:17.442Z,3.22
2019-03-15T18:43:46.008Z,3.37
2019-03-15T18:46:14.555Z,5.15
2019-03-15T18:48:43.219Z,2.98
2019-03-15T18:51:11.897Z,3.67
2019-03-15T18:53:40.529Z,3.50
2019-03-15T18:56:09.100Z,3.87
2019-03-15T18:58:37.641Z,3.42
2019-03-15T19:01:06.338Z,3.37
2019-03-15T19:03:34.878Z,3.87
2019-03-15T19:06:03.718Z,3.92
2019-03-15T19:08:32.259Z,2.92
2019-03-15T19:11:00.926Z,2.35
2019-03-15T19:13:29.491Z,3.12
2019-03-15T19:15:58.231Z,3.47
2019-03-15T19:18:26.985Z,3.17
2019-03-15T19:20:55.566Z,3.50
2019-03-15T19:23:24.197Z,2.98
2019-03-15T19:25:52.747Z,3.67
2019-03-15T19:28:21.302Z,4.85
2019-03-15T19:30:49.854Z,3.58
2019-03-15T19:33:18.415Z,3.02
2019-03-15T19:35:47.026Z,3.90
2019-03-15T19:38:15.686Z,2.70
2019-03-15T19:40:44.232Z,2.30
2019-03-15T19:43:12.797Z,3.22
2019-03-15T19:45:41.568Z,2.95
2019-03-15T19:48:10.131Z,2.83
2019-03-15T19:50:39.015Z,2.15
2019-03-15T19:53:07.742Z,2.05
2019-03-15T19:55:36.491Z,2.45
2019-03-15T19:58:05.414Z,2.52
2019-03-15T20:00:33.946Z,1.15
2019-03-15T20:03:02.711Z,2.58
2019-03-15T20:05:31.481Z,1.90
2019-03-15T20:08:00.255Z,2.05
2019-03-15T20:10:29.013Z,1.98
2019-03-15T20:12:57.587Z,2.00
2019-03-15T20:15:26.130Z,2.50
2019-03-15T20:17:54.673Z,2.85
2019-03-15T20:20:23.260Z,4.05
2019-03-15T20:22:52.017Z,1.80
2019-03-15T20:25:20.652Z,4.25
2019-03-15T20:27:49.417Z,3.02
2019-03-15T20:30:21.564Z,3.20
2019-03-15T20:32:48.731Z,3.27
2019-03-15T20:35:17.383Z,3.50
2019-03-15T20:37:46.111Z,3.12
2019-03-15T20:40:14.953Z,1.85
2019-03-15T20:42:43.762Z,3.30
2019-03-15T20:45:13.202Z,2.70
2019-03-15T20:47:41.780Z,3.22
2019-03-15T20:50:10.976Z,1.52
2019-03-15T20:52:39.614Z,2.58
2019-03-15T20:55:08.405Z,2.75
2019-03-15T20:57:37.220Z,2.80
2019-03-15T21:00:07.408Z,3.12
2019-03-15T21:02:35.955Z,2.72
2019-03-15T21:05:07.853Z,2.40
2019-03-15T21:07:35.206Z,2.80
2019-03-15T21:10:03.952Z,2.00
2019-03-15T21:12:32.625Z,2.33
2019-03-15T21:15:01.366Z,2.27
2019-03-15T21:17:29.899Z,2.33
2019-03-15T21:19:58.474Z,2.83
2019-03-15T21:22:27.107Z,3.52
2019-03-15T21:24:55.759Z,3.27
2019-03-15T21:27:24.333Z,2.65
2019-03-15T21:29:52.868Z,2.80
2019-03-15T21:32:21.481Z,2.40
2019-03-15T21:34:50.088Z,2.20
2019-03-15T21:37:18.609Z,2.90
2019-03-15T21:39:47.157Z,2.17
2019-03-15T21:42:15.833Z,2.10
2019-03-15T21:44:44.398Z,2.08
2019-03-15T21:47:12.923Z,2.70
2019-03-15T21:49:41.512Z,3.40
2019-03-15T21:52:10.048Z,2.40
2019-03-15T21:54:38.596Z,2.50
2019-03-15T21:57:07.255Z,3.08
2019-03-15T21:59:39.006Z,2.02
2019-03-15T22:02:06.578Z,2.20
2019-03-15T22:04:35.154Z,2.02
2019-03-15T22:07:03.785Z,1.92
2019-03-15T22:09:32.337Z,1.72
2019-03-15T22:12:00.885Z,2.47
2019-03-15T22:14:29.420Z,1.92
2019-03-15T22:16:57.949Z,3.40
2019-03-15T22:19:26.520Z,2.75
2019-03-15T22:21:55.051Z,2.00
2019-03-15T22:24:23.604Z,2.27
2019-03-15T22:26:52.256Z,2.05
2019-03-15T22:29:20.810Z,2.25
2019-03-15T22:31:49.340Z,1.77
2019-03-15T22:34:17.892Z,2.50
2019-03-15T22:36:46.490Z,2.15
2019-03-15T22:39:15.020Z,2.05
2019-03-15T22:41:43.596Z,1.90
2019-03-15T22:44:12.240Z,2.30
2019-03-15T22:46:40.897Z,2.67
2019-03-15T22:49:09.466Z,2.05
2019-03-15T22:51:38.028Z,1.80
2019-03-15T22:54:06.569Z,2.00
2019-03-15T22:56:35.128Z,2.33
2019-03-15T22:59:03.771Z,3.50
2019-03-15T23:01:32.399Z,2.45
2019-03-15T23:04:00.976Z,1.30
2019-03-15T23:06:29.494Z,1.60
2019-03-15T23:08:58.052Z,1.75
2019-03-15T23:11:26.631Z,2.65
2019-03-15T23:13:55.174Z,2.42
2019-03-15T23:16:23.703Z,2.37
2019-03-15T23:18:52.264Z,2.70
2019-03-15T23:21:20.801Z,2.00
2019-03-15T23:23:49.363Z,2.55
2019-03-15T23:26:17.934Z,2.22
2019-03-15T23:28:47.371Z,3.02
2019-03-15T23:31:16.219Z,2.20
2019-03-15T23:33:44.848Z,2.80
2019-03-15T23:36:13.366Z,2.40
2019-03-15T23:38:41.929Z,2.45
2019-03-15T23:41:10.481Z,2.05
2019-03-15T23:43:39.016Z,2.08
2019-03-15T23:46:07.685Z,2.98
2019-03-15T23:48:36.323Z,3.00
2019-03-15T23:51:04.966Z,2.17
2019-03-15T23:53:33.595Z,3.72
2019-03-15T23:56:02.254Z,2.75
2019-03-15T23:58:30.793Z,2.72
